sensor_id;sensor_type;location;lat;lon;timestamp;temperature;humidity
78876;DHT22;68253;52.506;5.486;2023-10-08T00:02:10;18.60;73.90
78876;DHT22;68253;52.506;5.486;2023-10-08T00:04:37;18.60;73.90
78876;DHT22;68253;52.506;5.486;2023-10-08T00:07:06;18.60;73.90
78876;DHT22;68253;52.506;5.486;2023-10-08T00:09:35;18.60;73.90
78876;DHT22;68253;52.506;5.486;2023-10-08T00:12:03;18.50;73.90
78876;DHT22;68253;52.506;5.486;2023-10-08T00:14:30;18.50;73.90
78876;DHT22;68253;52.506;5.486;2023-10-08T00:16:58;18.50;73.90
78876;DHT22;68253;52.506;5.486;2023-10-08T00:19:24;18.50;73.90
78876;DHT22;68253;52.506;5.486;2023-10-08T00:21:50;18.50;73.90
78876;DHT22;68253;52.506;5.486;2023-10-08T00:24:19;18.50;73.90
78876;DHT22;68253;52.506;5.486;2023-10-08T00:26:53;18.50;73.90
78876;DHT22;68253;52.506;5.486;2023-10-08T00:29:20;18.40;74.00
78876;DHT22;68253;52.506;5.486;2023-10-08T00:31:50;18.40;74.00
78876;DHT22;68253;52.506;5.486;2023-10-08T00:34:17;18.40;74.00
78876;DHT22;68253;52.506;5.486;2023-10-08T00:36:46;18.40;74.10
78876;DHT22;68253;52.506;5.486;2023-10-08T00:39:14;18.40;74.10
78876;DHT22;68253;52.506;5.486;2023-10-08T00:41:45;18.30;74.10
78876;DHT22;68253;52.506;5.486;2023-10-08T00:44:13;18.40;74.10
78876;DHT22;68253;52.506;5.486;2023-10-08T00:46:42;18.40;74.20
78876;DHT22;68253;52.506;5.486;2023-10-08T00:49:22;18.40;74.20
78876;DHT22;68253;52.506;5.486;2023-10-08T00:51:53;18.30;74.20
78876;DHT22;68253;52.506;5.486;2023-10-08T00:54:41;18.40;74.30
78876;DHT22;68253;52.506;5.486;2023-10-08T00:57:22;18.40;74.30
78876;DHT22;68253;52.506;5.486;2023-10-08T00:59:49;18.40;74.30
78876;DHT22;68253;52.506;5.486;2023-10-08T01:02:32;18.40;74.30
78876;DHT22;68253;52.506;5.486;2023-10-08T01:05:17;18.30;74.30
78876;DHT22;68253;52.506;5.486;2023-10-08T01:07:47;18.30;74.30
78876;DHT22;68253;52.506;5.486;2023-10-08T01:10:16;18.30;74.40
78876;DHT22;68253;52.506;5.486;2023-10-08T01:12:47;18.20;74.40
78876;DHT22;68253;52.506;5.486;2023-10-08T01:15:29;18.20;74.50
78876;DHT22;68253;52.506;5.486;2023-10-08T01:17:56;18.20;74.60
78876;DHT22;68253;52.506;5.486;2023-10-08T01:20:31;18.20;74.60
78876;DHT22;68253;52.506;5.486;2023-10-08T01:23:08;18.20;74.70
78876;DHT22;68253;52.506;5.486;2023-10-08T01:25:43;18.10;74.70
78876;DHT22;68253;52.506;5.486;2023-10-08T01:28:17;18.10;74.70
78876;DHT22;68253;52.506;5.486;2023-10-08T01:30:49;18.10;74.70
78876;DHT22;68253;52.506;5.486;2023-10-08T01:33:19;18.00;74.80
78876;DHT22;68253;52.506;5.486;2023-10-08T01:35:47;18.00;74.90
78876;DHT22;68253;52.506;5.486;2023-10-08T01:38:14;18.00;74.90
78876;DHT22;68253;52.506;5.486;2023-10-08T01:40:42;18.00;74.90
78876;DHT22;68253;52.506;5.486;2023-10-08T01:43:09;18.00;74.90
78876;DHT22;68253;52.506;5.486;2023-10-08T01:45:37;18.00;74.90
78876;DHT22;68253;52.506;5.486;2023-10-08T01:48:08;18.00;74.80
78876;DHT22;68253;52.506;5.486;2023-10-08T01:50:37;17.90;74.70
78876;DHT22;68253;52.506;5.486;2023-10-08T01:53:04;17.80;74.60
78876;DHT22;68253;52.506;5.486;2023-10-08T01:55:36;17.80;74.70
78876;DHT22;68253;52.506;5.486;2023-10-08T01:58:16;17.60;74.50
78876;DHT22;68253;52.506;5.486;2023-10-08T02:00:44;17.60;74.40
78876;DHT22;68253;52.506;5.486;2023-10-08T02:03:13;17.50;74.30
78876;DHT22;68253;52.506;5.486;2023-10-08T02:05:45;17.40;74.00
78876;DHT22;68253;52.506;5.486;2023-10-08T02:08:12;17.20;73.90
78876;DHT22;68253;52.506;5.486;2023-10-08T02:10:40;17.00;73.50
78876;DHT22;68253;52.506;5.486;2023-10-08T02:13:08;16.90;73.50
78876;DHT22;68253;52.506;5.486;2023-10-08T02:15:43;16.70;73.50
78876;DHT22;68253;52.506;5.486;2023-10-08T02:18:09;16.60;73.60
78876;DHT22;68253;52.506;5.486;2023-10-08T02:20:35;16.40;73.50
78876;DHT22;68253;52.506;5.486;2023-10-08T02:23:02;16.30;73.60
78876;DHT22;68253;52.506;5.486;2023-10-08T02:25:32;16.20;73.80
78876;DHT22;68253;52.506;5.486;2023-10-08T02:27:58;16.10;73.80
78876;DHT22;68253;52.506;5.486;2023-10-08T02:30:24;16.10;73.90
78876;DHT22;68253;52.506;5.486;2023-10-08T02:32:50;16.00;73.90
78876;DHT22;68253;52.506;5.486;2023-10-08T02:35:18;16.00;73.90
78876;DHT22;68253;52.506;5.486;2023-10-08T02:37:44;15.90;73.90
78876;DHT22;68253;52.506;5.486;2023-10-08T02:40:11;15.80;74.00
78876;DHT22;68253;52.506;5.486;2023-10-08T02:42:54;15.80;74.00
78876;DHT22;68253;52.506;5.486;2023-10-08T02:45:27;15.80;74.10
78876;DHT22;68253;52.506;5.486;2023-10-08T02:47:54;15.70;74.30
78876;DHT22;68253;52.506;5.486;2023-10-08T02:50:21;15.60;74.40
78876;DHT22;68253;52.506;5.486;2023-10-08T02:52:49;15.60;74.50
78876;DHT22;68253;52.506;5.486;2023-10-08T02:55:18;15.60;74.50
78876;DHT22;68253;52.506;5.486;2023-10-08T02:57:55;15.60;74.40
78876;DHT22;68253;52.506;5.486;2023-10-08T03:00:22;15.50;74.40
78876;DHT22;68253;52.506;5.486;2023-10-08T03:02:57;15.50;74.40
78876;DHT22;68253;52.506;5.486;2023-10-08T03:05:23;15.50;74.40
78876;DHT22;68253;52.506;5.486;2023-10-08T03:07:55;15.50;74.20
78876;DHT22;68253;52.506;5.486;2023-10-08T03:10:25;15.40;74.20
78876;DHT22;68253;52.506;5.486;2023-10-08T03:12:58;15.40;74.10
78876;DHT22;68253;52.506;5.486;2023-10-08T03:15:31;15.30;74.00
78876;DHT22;68253;52.506;5.486;2023-10-08T03:18:06;15.30;74.10
78876;DHT22;68253;52.506;5.486;2023-10-08T03:20:37;15.20;74.00
78876;DHT22;68253;52.506;5.486;2023-10-08T03:23:10;15.20;74.00
78876;DHT22;68253;52.506;5.486;2023-10-08T03:25:55;15.20;74.00
78876;DHT22;68253;52.506;5.486;2023-10-08T03:28:30;15.10;73.90
78876;DHT22;68253;52.506;5.486;2023-10-08T03:31:01;15.00;74.00
78876;DHT22;68253;52.506;5.486;2023-10-08T03:33:35;15.00;73.70
78876;DHT22;68253;52.506;5.486;2023-10-08T03:36:07;15.00;73.70
78876;DHT22;68253;52.506;5.486;2023-10-08T03:38:47;15.00;73.80
78876;DHT22;68253;52.506;5.486;2023-10-08T03:41:26;14.90;73.80
78876;DHT22;68253;52.506;5.486;2023-10-08T03:43:58;14.90;73.80
78876;DHT22;68253;52.506;5.486;2023-10-08T03:46:30;14.90;73.70
78876;DHT22;68253;52.506;5.486;2023-10-08T03:48:57;15.00;73.50
78876;DHT22;68253;52.506;5.486;2023-10-08T03:51:31;15.00;73.50
78876;DHT22;68253;52.506;5.486;2023-10-08T03:54:08;15.00;73.50
78876;DHT22;68253;52.506;5.486;2023-10-08T03:56:35;15.00;73.40
78876;DHT22;68253;52.506;5.486;2023-10-08T03:59:03;15.00;73.40
78876;DHT22;68253;52.506;5.486;2023-10-08T04:01:42;15.00;73.50
78876;DHT22;68253;52.506;5.486;2023-10-08T04:04:08;15.00;73.30
78876;DHT22;68253;52.506;5.486;2023-10-08T04:06:42;15.00;73.20
78876;DHT22;68253;52.506;5.486;2023-10-08T04:09:15;14.90;73.40
78876;DHT22;68253;52.506;5.486;2023-10-08T04:11:44;14.90;73.40
78876;DHT22;68253;52.506;5.486;2023-10-08T04:14:13;14.90;73.60
78876;DHT22;68253;52.506;5.486;2023-10-08T04:16:42;14.90;73.70
78876;DHT22;68253;52.506;5.486;2023-10-08T04:19:09;14.90;73.70
78876;DHT22;68253;52.506;5.486;2023-10-08T04:21:36;14.80;73.80
78876;DHT22;68253;52.506;5.486;2023-10-08T04:24:02;14.80;74.00
78876;DHT22;68253;52.506;5.486;2023-10-08T04:26:32;14.80;74.00
78876;DHT22;68253;52.506;5.486;2023-10-08T04:29:00;14.80;74.00
78876;DHT22;68253;52.506;5.486;2023-10-08T04:31:33;14.80;74.20
78876;DHT22;68253;52.506;5.486;2023-10-08T04:34:04;14.80;74.20
78876;DHT22;68253;52.506;5.486;2023-10-08T04:36:44;14.70;74.30
78876;DHT22;68253;52.506;5.486;2023-10-08T04:39:16;14.70;74.50
78876;DHT22;68253;52.506;5.486;2023-10-08T04:41:47;14.70;74.50
78876;DHT22;68253;52.506;5.486;2023-10-08T04:44:20;14.70;74.60
78876;DHT22;68253;52.506;5.486;2023-10-08T04:46:47;14.70;74.70
78876;DHT22;68253;52.506;5.486;2023-10-08T04:49:18;14.60;74.70
78876;DHT22;68253;52.506;5.486;2023-10-08T04:52:00;14.60;74.80
78876;DHT22;68253;52.506;5.486;2023-10-08T04:54:27;14.70;74.70
78876;DHT22;68253;52.506;5.486;2023-10-08T04:57:00;14.70;74.70
78876;DHT22;68253;52.506;5.486;2023-10-08T04:59:28;14.70;74.80
78876;DHT22;68253;52.506;5.486;2023-10-08T05:02:01;14.70;74.90
78876;DHT22;68253;52.506;5.486;2023-10-08T05:04:50;14.80;74.80
78876;DHT22;68253;52.506;5.486;2023-10-08T05:07:20;14.80;74.80
78876;DHT22;68253;52.506;5.486;2023-10-08T05:09:52;14.80;74.70
78876;DHT22;68253;52.506;5.486;2023-10-08T05:12:37;14.80;74.70
78876;DHT22;68253;52.506;5.486;2023-10-08T05:15:05;14.80;74.60
78876;DHT22;68253;52.506;5.486;2023-10-08T05:17:44;14.80;74.80
78876;DHT22;68253;52.506;5.486;2023-10-08T05:20:19;14.90;74.80
78876;DHT22;68253;52.506;5.486;2023-10-08T05:23:13;14.90;74.70
78876;DHT22;68253;52.506;5.486;2023-10-08T05:25:56;14.90;74.70
78876;DHT22;68253;52.506;5.486;2023-10-08T05:28:36;14.80;74.60
78876;DHT22;68253;52.506;5.486;2023-10-08T05:31:14;14.80;74.60
78876;DHT22;68253;52.506;5.486;2023-10-08T05:33:41;14.80;74.70
78876;DHT22;68253;52.506;5.486;2023-10-08T05:36:41;14.80;74.70
78876;DHT22;68253;52.506;5.486;2023-10-08T05:39:27;14.80;74.80
78876;DHT22;68253;52.506;5.486;2023-10-08T05:42:10;14.80;75.00
78876;DHT22;68253;52.506;5.486;2023-10-08T05:44:41;14.90;74.90
78876;DHT22;68253;52.506;5.486;2023-10-08T05:47:13;14.90;74.80
78876;DHT22;68253;52.506;5.486;2023-10-08T05:50:05;14.90;74.70
78876;DHT22;68253;52.506;5.486;2023-10-08T05:52:44;14.90;74.60
78876;DHT22;68253;52.506;5.486;2023-10-08T05:55:22;14.90;74.70
78876;DHT22;68253;52.506;5.486;2023-10-08T05:57:48;14.90;74.50
78876;DHT22;68253;52.506;5.486;2023-10-08T06:00:18;14.90;74.50
78876;DHT22;68253;52.506;5.486;2023-10-08T06:03:07;14.90;74.30
78876;DHT22;68253;52.506;5.486;2023-10-08T06:05:36;14.80;74.20
78876;DHT22;68253;52.506;5.486;2023-10-08T06:08:09;14.80;74.20
78876;DHT22;68253;52.506;5.486;2023-10-08T06:10:40;14.80;74.10
78876;DHT22;68253;52.506;5.486;2023-10-08T06:13:08;14.80;74.00
78876;DHT22;68253;52.506;5.486;2023-10-08T06:15:43;14.80;74.00
78876;DHT22;68253;52.506;5.486;2023-10-08T06:18:30;14.80;73.90
78876;DHT22;68253;52.506;5.486;2023-10-08T06:21:05;14.80;73.80
78876;DHT22;68253;52.506;5.486;2023-10-08T06:23:37;14.70;73.90
78876;DHT22;68253;52.506;5.486;2023-10-08T06:26:04;14.70;73.90
78876;DHT22;68253;52.506;5.486;2023-10-08T06:28:41;14.60;73.90
78876;DHT22;68253;52.506;5.486;2023-10-08T06:31:08;14.60;73.90
78876;DHT22;68253;52.506;5.486;2023-10-08T06:33:38;14.60;73.90
78876;DHT22;68253;52.506;5.486;2023-10-08T06:36:06;14.60;74.00
78876;DHT22;68253;52.506;5.486;2023-10-08T06:38:43;14.60;73.80
78876;DHT22;68253;52.506;5.486;2023-10-08T06:41:11;14.60;73.70
78876;DHT22;68253;52.506;5.486;2023-10-08T06:43:49;14.60;73.70
78876;DHT22;68253;52.506;5.486;2023-10-08T06:46:17;14.60;73.70
78876;DHT22;68253;52.506;5.486;2023-10-08T06:48:48;14.60;73.70
78876;DHT22;68253;52.506;5.486;2023-10-08T06:51:15;14.60;73.70
78876;DHT22;68253;52.506;5.486;2023-10-08T06:53:47;14.50;73.90
78876;DHT22;68253;52.506;5.486;2023-10-08T06:56:15;14.50;73.90
78876;DHT22;68253;52.506;5.486;2023-10-08T06:58:42;14.50;74.00
78876;DHT22;68253;52.506;5.486;2023-10-08T07:01:21;14.50;74.00
78876;DHT22;68253;52.506;5.486;2023-10-08T07:03:48;14.50;74.00
78876;DHT22;68253;52.506;5.486;2023-10-08T07:06:18;14.50;73.90
78876;DHT22;68253;52.506;5.486;2023-10-08T07:08:58;14.50;74.00
78876;DHT22;68253;52.506;5.486;2023-10-08T07:11:26;14.60;73.90
78876;DHT22;68253;52.506;5.486;2023-10-08T07:13:55;14.60;73.80
78876;DHT22;68253;52.506;5.486;2023-10-08T07:16:22;14.50;73.80
78876;DHT22;68253;52.506;5.486;2023-10-08T07:18:49;14.60;73.80
78876;DHT22;68253;52.506;5.486;2023-10-08T07:21:21;14.60;73.70
78876;DHT22;68253;52.506;5.486;2023-10-08T07:24:14;14.60;73.80
78876;DHT22;68253;52.506;5.486;2023-10-08T07:26:48;14.60;73.70
78876;DHT22;68253;52.506;5.486;2023-10-08T07:29:16;14.70;73.50
78876;DHT22;68253;52.506;5.486;2023-10-08T07:31:44;14.70;73.50
78876;DHT22;68253;52.506;5.486;2023-10-08T07:34:15;14.70;73.40
78876;DHT22;68253;52.506;5.486;2023-10-08T07:36:48;14.70;73.20
78876;DHT22;68253;52.506;5.486;2023-10-08T07:39:15;14.70;73.20
78876;DHT22;68253;52.506;5.486;2023-10-08T07:41:54;14.70;73.30
78876;DHT22;68253;52.506;5.486;2023-10-08T07:44:22;14.70;73.20
78876;DHT22;68253;52.506;5.486;2023-10-08T07:46:52;14.70;73.00
78876;DHT22;68253;52.506;5.486;2023-10-08T07:49:22;14.70;72.90
78876;DHT22;68253;52.506;5.486;2023-10-08T07:51:49;14.70;72.80
78876;DHT22;68253;52.506;5.486;2023-10-08T07:54:18;14.70;72.70
78876;DHT22;68253;52.506;5.486;2023-10-08T07:56:49;14.80;72.60
78876;DHT22;68253;52.506;5.486;2023-10-08T07:59:15;14.80;72.50
78876;DHT22;68253;52.506;5.486;2023-10-08T08:01:43;14.90;72.50
78876;DHT22;68253;52.506;5.486;2023-10-08T08:04:12;15.00;72.40
78876;DHT22;68253;52.506;5.486;2023-10-08T08:06:49;15.00;72.20
78876;DHT22;68253;52.506;5.486;2023-10-08T08:09:17;15.00;72.10
78876;DHT22;68253;52.506;5.486;2023-10-08T08:11:48;15.00;72.10
78876;DHT22;68253;52.506;5.486;2023-10-08T08:14:14;15.00;72.10
78876;DHT22;68253;52.506;5.486;2023-10-08T08:16:45;15.00;72.20
78876;DHT22;68253;52.506;5.486;2023-10-08T08:19:17;15.00;72.00
78876;DHT22;68253;52.506;5.486;2023-10-08T08:21:50;15.00;71.90
78876;DHT22;68253;52.506;5.486;2023-10-08T08:24:18;15.10;71.90
78876;DHT22;68253;52.506;5.486;2023-10-08T08:26:55;15.20;71.50
78876;DHT22;68253;52.506;5.486;2023-10-08T08:29:35;15.30;71.30
78876;DHT22;68253;52.506;5.486;2023-10-08T08:32:10;15.40;71.10
78876;DHT22;68253;52.506;5.486;2023-10-08T08:34:45;15.50;70.70
78876;DHT22;68253;52.506;5.486;2023-10-08T08:37:14;15.50;70.70
78876;DHT22;68253;52.506;5.486;2023-10-08T08:39:40;15.60;70.50
78876;DHT22;68253;52.506;5.486;2023-10-08T08:42:08;15.60;70.40
78876;DHT22;68253;52.506;5.486;2023-10-08T08:44:43;15.80;70.40
78876;DHT22;68253;52.506;5.486;2023-10-08T08:47:13;16.00;70.00
78876;DHT22;68253;52.506;5.486;2023-10-08T08:49:46;16.00;69.00
78876;DHT22;68253;52.506;5.486;2023-10-08T08:52:14;16.10;68.70
78876;DHT22;68253;52.506;5.486;2023-10-08T08:54:41;16.20;68.20
78876;DHT22;68253;52.506;5.486;2023-10-08T08:57:11;16.30;67.90
78876;DHT22;68253;52.506;5.486;2023-10-08T08:59:53;16.30;67.70
78876;DHT22;68253;52.506;5.486;2023-10-08T09:02:21;16.40;67.00
78876;DHT22;68253;52.506;5.486;2023-10-08T09:04:48;16.50;67.20
78876;DHT22;68253;52.506;5.486;2023-10-08T09:07:18;16.80;66.10
78876;DHT22;68253;52.506;5.486;2023-10-08T09:09:47;17.00;65.40
78876;DHT22;68253;52.506;5.486;2023-10-08T09:12:18;17.20;65.50
78876;DHT22;68253;52.506;5.486;2023-10-08T09:14:44;17.20;65.10
78876;DHT22;68253;52.506;5.486;2023-10-08T09:17:12;17.20;64.40
78876;DHT22;68253;52.506;5.486;2023-10-08T09:19:41;17.10;64.40
78876;DHT22;68253;52.506;5.486;2023-10-08T09:22:09;17.00;64.30
78876;DHT22;68253;52.506;5.486;2023-10-08T09:24:41;16.90;64.40
78876;DHT22;68253;52.506;5.486;2023-10-08T09:27:10;16.90;64.70
78876;DHT22;68253;52.506;5.486;2023-10-08T09:29:41;16.90;64.50
78876;DHT22;68253;52.506;5.486;2023-10-08T09:32:13;16.80;64.80
78876;DHT22;68253;52.506;5.486;2023-10-08T09:34:49;16.90;65.00
78876;DHT22;68253;52.506;5.486;2023-10-08T09:37:18;17.00;65.30
78876;DHT22;68253;52.506;5.486;2023-10-08T09:39:49;17.50;65.30
78876;DHT22;68253;52.506;5.486;2023-10-08T09:42:17;18.20;64.10
78876;DHT22;68253;52.506;5.486;2023-10-08T09:44:48;19.10;63.10
78876;DHT22;68253;52.506;5.486;2023-10-08T09:47:21;20.00;60.70
78876;DHT22;68253;52.506;5.486;2023-10-08T09:50:01;20.50;59.00
78876;DHT22;68253;52.506;5.486;2023-10-08T09:55:17;21.50;57.40
78876;DHT22;68253;52.506;5.486;2023-10-08T09:57:44;21.70;56.30
78876;DHT22;68253;52.506;5.486;2023-10-08T10:00:10;21.90;55.70
78876;DHT22;68253;52.506;5.486;2023-10-08T10:02:44;21.90;56.10
78876;DHT22;68253;52.506;5.486;2023-10-08T10:05:12;21.90;55.50
78876;DHT22;68253;52.506;5.486;2023-10-08T10:07:40;22.10;55.10
78876;DHT22;68253;52.506;5.486;2023-10-08T10:10:28;22.20;55.10
78876;DHT22;68253;52.506;5.486;2023-10-08T10:13:02;22.10;54.70
78876;DHT22;68253;52.506;5.486;2023-10-08T10:15:31;22.10;54.90
78876;DHT22;68253;52.506;5.486;2023-10-08T10:18:09;22.40;55.00
78876;DHT22;68253;52.506;5.486;2023-10-08T10:20:40;22.80;54.10
78876;DHT22;68253;52.506;5.486;2023-10-08T10:23:43;23.10;53.00
78876;DHT22;68253;52.506;5.486;2023-10-08T10:26:23;23.20;53.00
78876;DHT22;68253;52.506;5.486;2023-10-08T10:31:43;23.50;53.10
78876;DHT22;68253;52.506;5.486;2023-10-08T10:34:12;23.70;52.30
78876;DHT22;68253;52.506;5.486;2023-10-08T10:36:40;23.90;52.50
78876;DHT22;68253;52.506;5.486;2023-10-08T10:39:06;24.20;52.10
78876;DHT22;68253;52.506;5.486;2023-10-08T10:41:44;24.20;51.40
78876;DHT22;68253;52.506;5.486;2023-10-08T10:44:14;24.40;51.40
78876;DHT22;68253;52.506;5.486;2023-10-08T10:46:46;24.40;50.20
78876;DHT22;68253;52.506;5.486;2023-10-08T10:49:38;24.20;50.50
78876;DHT22;68253;52.506;5.486;2023-10-08T10:52:25;23.90;50.30
78876;DHT22;68253;52.506;5.486;2023-10-08T10:55:05;23.30;51.50
78876;DHT22;68253;52.506;5.486;2023-10-08T10:57:46;23.20;51.80
78876;DHT22;68253;52.506;5.486;2023-10-08T11:00:25;23.20;52.40
78876;DHT22;68253;52.506;5.486;2023-10-08T11:03:01;23.40;52.00
78876;DHT22;68253;52.506;5.486;2023-10-08T11:05:30;23.30;52.10
78876;DHT22;68253;52.506;5.486;2023-10-08T11:07:59;23.30;52.10
78876;DHT22;68253;52.506;5.486;2023-10-08T11:10:33;23.50;52.20
78876;DHT22;68253;52.506;5.486;2023-10-08T11:13:01;23.50;52.10
78876;DHT22;68253;52.506;5.486;2023-10-08T11:15:28;23.60;51.50
78876;DHT22;68253;52.506;5.486;2023-10-08T11:18:17;23.40;51.50
78876;DHT22;68253;52.506;5.486;2023-10-08T11:20:44;23.30;51.80
78876;DHT22;68253;52.506;5.486;2023-10-08T11:23:32;23.00;52.20
78876;DHT22;68253;52.506;5.486;2023-10-08T11:26:00;22.60;52.60
78876;DHT22;68253;52.506;5.486;2023-10-08T11:28:39;22.50;52.80
78876;DHT22;68253;52.506;5.486;2023-10-08T11:31:11;22.50;52.70
78876;DHT22;68253;52.506;5.486;2023-10-08T11:33:39;22.10;52.90
78876;DHT22;68253;52.506;5.486;2023-10-08T11:36:07;21.70;53.40
78876;DHT22;68253;52.506;5.486;2023-10-08T11:38:45;21.50;54.20
78876;DHT22;68253;52.506;5.486;2023-10-08T11:41:15;21.20;54.30
78876;DHT22;68253;52.506;5.486;2023-10-08T11:43:51;21.10;54.10
78876;DHT22;68253;52.506;5.486;2023-10-08T11:46:24;21.10;54.40
78876;DHT22;68253;52.506;5.486;2023-10-08T11:48:59;21.40;54.30
78876;DHT22;68253;52.506;5.486;2023-10-08T11:51:34;21.50;54.10
78876;DHT22;68253;52.506;5.486;2023-10-08T11:54:01;21.50;54.10
78876;DHT22;68253;52.506;5.486;2023-10-08T11:56:32;21.30;54.10
78876;DHT22;68253;52.506;5.486;2023-10-08T11:59:02;21.10;54.40
78876;DHT22;68253;52.506;5.486;2023-10-08T12:01:31;20.90;55.10
78876;DHT22;68253;52.506;5.486;2023-10-08T12:04:01;21.00;55.30
78876;DHT22;68253;52.506;5.486;2023-10-08T12:06:27;21.30;55.00
78876;DHT22;68253;52.506;5.486;2023-10-08T12:08:57;21.50;54.50
78876;DHT22;68253;52.506;5.486;2023-10-08T12:11:25;21.70;54.40
78876;DHT22;68253;52.506;5.486;2023-10-08T12:13:57;21.90;54.30
78876;DHT22;68253;52.506;5.486;2023-10-08T12:16:25;21.90;53.50
78876;DHT22;68253;52.506;5.486;2023-10-08T12:18:56;21.70;53.80
78876;DHT22;68253;52.506;5.486;2023-10-08T12:21:26;21.50;54.60
78876;DHT22;68253;52.506;5.486;2023-10-08T12:23:58;21.70;54.70
78876;DHT22;68253;52.506;5.486;2023-10-08T12:26:25;21.70;54.80
78876;DHT22;68253;52.506;5.486;2023-10-08T12:28:51;22.00;54.20
78876;DHT22;68253;52.506;5.486;2023-10-08T12:31:20;22.50;53.40
78876;DHT22;68253;52.506;5.486;2023-10-08T12:33:48;22.70;53.40
78876;DHT22;68253;52.506;5.486;2023-10-08T12:36:22;22.90;52.80
78876;DHT22;68253;52.506;5.486;2023-10-08T12:38:49;22.80;52.80
78876;DHT22;68253;52.506;5.486;2023-10-08T12:41:16;22.60;53.00
78876;DHT22;68253;52.506;5.486;2023-10-08T12:43:45;22.30;53.40
78876;DHT22;68253;52.506;5.486;2023-10-08T12:46:14;21.90;54.00
78876;DHT22;68253;52.506;5.486;2023-10-08T12:48:56;21.60;54.30
78876;DHT22;68253;52.506;5.486;2023-10-08T12:51:24;21.20;54.90
78876;DHT22;68253;52.506;5.486;2023-10-08T12:53:51;20.80;55.30
78876;DHT22;68253;52.506;5.486;2023-10-08T12:56:25;20.60;56.10
78876;DHT22;68253;52.506;5.486;2023-10-08T12:59:12;20.40;56.70
78876;DHT22;68253;52.506;5.486;2023-10-08T13:01:47;20.30;56.90
78876;DHT22;68253;52.506;5.486;2023-10-08T13:04:18;20.10;57.00
78876;DHT22;68253;52.506;5.486;2023-10-08T13:06:52;19.90;57.50
78876;DHT22;68253;52.506;5.486;2023-10-08T13:09:24;19.70;58.30
78876;DHT22;68253;52.506;5.486;2023-10-08T13:11:50;19.50;58.30
78876;DHT22;68253;52.506;5.486;2023-10-08T13:14:16;19.50;58.90
78876;DHT22;68253;52.506;5.486;2023-10-08T13:16:42;19.40;59.10
78876;DHT22;68253;52.506;5.486;2023-10-08T13:19:11;19.50;59.40
78876;DHT22;68253;52.506;5.486;2023-10-08T13:21:37;19.80;59.60
78876;DHT22;68253;52.506;5.486;2023-10-08T13:24:04;20.30;60.40
78876;DHT22;68253;52.506;5.486;2023-10-08T13:26:35;21.00;59.70
78876;DHT22;68253;52.506;5.486;2023-10-08T13:29:03;21.40;58.70
78876;DHT22;68253;52.506;5.486;2023-10-08T13:31:31;21.30;58.60
78876;DHT22;68253;52.506;5.486;2023-10-08T13:34:02;21.00;58.60
78876;DHT22;68253;52.506;5.486;2023-10-08T13:36:35;20.70;59.20
78876;DHT22;68253;52.506;5.486;2023-10-08T13:39:06;20.50;59.70
78876;DHT22;68253;52.506;5.486;2023-10-08T13:41:44;20.30;60.30
78876;DHT22;68253;52.506;5.486;2023-10-08T13:44:14;20.10;60.50
78876;DHT22;68253;52.506;5.486;2023-10-08T13:46:40;20.00;60.60
78876;DHT22;68253;52.506;5.486;2023-10-08T13:49:15;20.00;60.40
78876;DHT22;68253;52.506;5.486;2023-10-08T13:51:42;19.90;60.90
78876;DHT22;68253;52.506;5.486;2023-10-08T13:54:10;19.90;60.50
78876;DHT22;68253;52.506;5.486;2023-10-08T13:56:37;19.70;60.90
78876;DHT22;68253;52.506;5.486;2023-10-08T13:59:14;19.70;61.30
78876;DHT22;68253;52.506;5.486;2023-10-08T14:01:44;19.70;60.90
78876;DHT22;68253;52.506;5.486;2023-10-08T14:04:12;19.50;60.30
78876;DHT22;68253;52.506;5.486;2023-10-08T14:06:43;19.50;60.70
78876;DHT22;68253;52.506;5.486;2023-10-08T14:09:14;19.50;61.10
78876;DHT22;68253;52.506;5.486;2023-10-08T14:11:47;19.40;61.70
78876;DHT22;68253;52.506;5.486;2023-10-08T14:14:13;19.30;62.00
78876;DHT22;68253;52.506;5.486;2023-10-08T14:16:42;19.10;62.30
78876;DHT22;68253;52.506;5.486;2023-10-08T14:19:12;19.10;62.60
78876;DHT22;68253;52.506;5.486;2023-10-08T14:21:40;19.00;63.10
78876;DHT22;68253;52.506;5.486;2023-10-08T14:24:16;19.00;63.10
78876;DHT22;68253;52.506;5.486;2023-10-08T14:26:42;19.00;63.50
78876;DHT22;68253;52.506;5.486;2023-10-08T14:29:09;19.00;63.50
78876;DHT22;68253;52.506;5.486;2023-10-08T14:31:44;19.00;63.70
78876;DHT22;68253;52.506;5.486;2023-10-08T14:34:22;19.10;63.50
78876;DHT22;68253;52.506;5.486;2023-10-08T14:37:08;19.00;63.30
78876;DHT22;68253;52.506;5.486;2023-10-08T14:39:52;19.00;63.40
78876;DHT22;68253;52.506;5.486;2023-10-08T14:42:37;18.90;63.50
78876;DHT22;68253;52.506;5.486;2023-10-08T14:45:26;18.80;63.70
78876;DHT22;68253;52.506;5.486;2023-10-08T14:47:54;18.70;64.00
78876;DHT22;68253;52.506;5.486;2023-10-08T14:50:22;18.70;64.40
78876;DHT22;68253;52.506;5.486;2023-10-08T14:52:49;18.70;64.10
78876;DHT22;68253;52.506;5.486;2023-10-08T14:55:16;18.60;64.20
78876;DHT22;68253;52.506;5.486;2023-10-08T14:57:42;18.60;64.30
78876;DHT22;68253;52.506;5.486;2023-10-08T15:00:09;18.60;64.10
78876;DHT22;68253;52.506;5.486;2023-10-08T15:02:37;18.50;64.00
78876;DHT22;68253;52.506;5.486;2023-10-08T15:05:06;18.40;64.00
78876;DHT22;68253;52.506;5.486;2023-10-08T15:07:34;18.30;64.00
78876;DHT22;68253;52.506;5.486;2023-10-08T15:10:02;18.30;64.30
78876;DHT22;68253;52.506;5.486;2023-10-08T15:12:28;18.30;64.30
78876;DHT22;68253;52.506;5.486;2023-10-08T15:14:57;18.30;64.20
78876;DHT22;68253;52.506;5.486;2023-10-08T15:17:23;18.20;64.40
78876;DHT22;68253;52.506;5.486;2023-10-08T15:19:49;18.20;64.60
78876;DHT22;68253;52.506;5.486;2023-10-08T15:22:17;18.20;64.60
78876;DHT22;68253;52.506;5.486;2023-10-08T15:24:43;18.20;64.50
78876;DHT22;68253;52.506;5.486;2023-10-08T15:27:11;18.10;64.70
78876;DHT22;68253;52.506;5.486;2023-10-08T15:29:37;18.10;64.80
78876;DHT22;68253;52.506;5.486;2023-10-08T15:32:03;18.10;64.80
78876;DHT22;68253;52.506;5.486;2023-10-08T15:34:30;18.00;65.10
78876;DHT22;68253;52.506;5.486;2023-10-08T15:36:56;18.00;65.10
78876;DHT22;68253;52.506;5.486;2023-10-08T15:39:22;18.00;65.00
78876;DHT22;68253;52.506;5.486;2023-10-08T15:41:50;18.00;65.10
78876;DHT22;68253;52.506;5.486;2023-10-08T15:44:19;18.00;65.20
78876;DHT22;68253;52.506;5.486;2023-10-08T15:46:49;18.00;65.10
78876;DHT22;68253;52.506;5.486;2023-10-08T15:49:16;18.00;65.10
78876;DHT22;68253;52.506;5.486;2023-10-08T15:51:48;18.00;65.00
78876;DHT22;68253;52.506;5.486;2023-10-08T15:54:14;18.00;65.20
78876;DHT22;68253;52.506;5.486;2023-10-08T15:56:46;18.00;64.90
78876;DHT22;68253;52.506;5.486;2023-10-08T15:59:13;18.00;64.80
78876;DHT22;68253;52.506;5.486;2023-10-08T16:01:39;18.00;64.70
78876;DHT22;68253;52.506;5.486;2023-10-08T16:04:07;18.00;64.60